Racecast

Caleb Cook

Temperance Bedford (MI) · 11 · SECMI D1MONROE · Compare head to head

Athlete rating 103.0 2024 XC season
Best race 102.1 XC
Races 53
Seasons 4 2023 — 2026

RankedNation #90311·MI #5371·MI D1 #3016·SEC #264·Team #71 ?

Cross Country

2024 XC 96.7

Temperance Bedford (MI) · Grade 10

Date Meet Event Result Place Rating Difficulty PR/SR Flags
2024-10-26 Lake Erie Metro Park OFFICIAL 5000m 22:06.5 132nd · 14th on team 100.2 +0.055 ★CR CSR
2024-10-17 Hudson Mills Metropark - OFFICIAL 5000m 22:14.64 142nd · 17th on team 98.0 +0.036 ★CR CSR
2024-10-12 Munson Park 5000m 21:42.2 50th · 8th on team 102.1 +0.054 ★PR ★CR ★R SR CSR RSR
2024-09-28 Lake Erie Metro Park OFFICIAL 5000m 22:14.1 86th · 17th on team 99.6 +0.055 PR CR R SR CSR RSR
2024-09-24 Pioneer HS 5000m 22:46.1 87th · 13th on team 98.7 +0.067 PR ★CR R SR CSR RSR
2024-09-10 Willow Metropark OFFICIAL 5000m 23:55.7 97th · 10th on team 92.4 +0.048 ★CR R CSR RSR
2024-09-07 Hedges Boyer Park 5000m 23:39.3 369th · 17th on team 85.5 -0.036 PR ★CR R SR CSR RSR

Track & Field

2026 TF

Temperance Bedford (MI) · Grade 11

Date Meet Event Result Place Rating Difficulty PR/SR Flags
2026-05-15 MHSAA LP Region 05-1 @ Saline 200m 24.41 29th · 2nd on team -0.042 ★PR SR
2026-04-29 Knight Classic JV Invitational 200m 24.74 3rd · 1st on team -0.040 SR
2026-04-29 Knight Classic JV Invitational 100m 12.44 5th · 1st on team -0.040
2026-04-28 SEC-HS: Bedford @ Monroe 200m 25.17 3rd · 3rd on team -0.032
2026-04-25 Railsplitter Invite (EQ approved) 200m 24.95 27th · 1st on team -0.032
2026-04-20 SEC-HS: Bedford @ Pioneer 400m 57.77 13th · 8th on team -0.028 SR
2026-04-20 SEC-HS: Bedford @ Pioneer 200m 25.4 14th · 7th on team -0.028
2026-04-14 SEC-HS: Huron & Saline at Bedford 200m 24.84 19th · 6th on team -0.033 SR
2026-04-14 SEC-HS: Huron & Saline at Bedford 100m 12.34 41st · 12th on team -0.033 ★PR SR
2025-12-20 LAB Indoor Meet #2 400m 58.85 93rd · 1st on team -0.035 SR
2025-12-20 LAB Indoor Meet #2 200m 25.58 125th · 2nd on team -0.035 SR

2025 TF

Temperance Bedford (MI) · Grade 10

Date Meet Event Result Place Rating Difficulty PR/SR Flags
2025-05-23 2025 MITCA D1 Team State 200m 24.85 40th · 3rd on team -0.037
2025-05-16 MHSAA LP Region 05-1 @ Ypsi Lincoln 200m 24.98 35th · 2nd on team -0.032
2025-05-08 SEC-HS Championship (Red) (EQ Approved) 200m 25.13 18th · 3rd on team -0.033
2025-05-01 Knight Classic 2025 200m 24.56 3rd · 1st on team -0.043 PR SR
2025-04-29 SEC-HS: Lincoln @ Bedford 200m 24.85 5th · 4th on team -0.033 PR SR
2025-04-29 SEC-HS: Lincoln @ Bedford 400m 57.09 4th · 4th on team -0.033 ★PR SR
2025-04-29 SEC-HS: Lincoln @ Bedford 100m 12.45 15th · 13th on team -0.033 PR SR
2025-04-22 SEC-HS: Bedford & Pioneer @ Monroe 200m 25.56 4th · 3rd on team -0.032 PR SR
2025-04-15 SEC-HS: Bedford & Dexter @ Skyline 100m 12.65 24th · 10th on team -0.033 PR SR
2025-04-15 SEC-HS: Bedford & Dexter @ Skyline 200m 26.77 23rd · 9th on team -0.033
2025-04-07 SEC-HS: Huron & Saline @ Bedford 400m 1:00.82 21st · 7th on team -0.033
2025-01-11 LAB Indoor Meet #5 200m 26.18 51st · 2nd on team -0.035 PR SR
2025-01-11 LAB Indoor Meet #5 60m 8.04 75th · 2nd on team -0.035
2024-12-27 LAB Holiday Invite 60m 8.04 86th · 3rd on team -0.035 PR SR
2024-12-27 LAB Holiday Invite 400m 1:00.49 57th · 2nd on team -0.035 PR SR
2024-12-14 LAB Indoor Meet #1 200m 26.63 100th · 3rd on team -0.035 PR SR
2024-12-14 LAB Indoor Meet #1 400m 1:04.31 48th · 2nd on team -0.035 PR SR

2024 TF

Temperance Bedford (MI) · Grade 9

Date Meet Event Result Place Rating Difficulty PR/SR Flags
2024-05-23 Dundee Jim Beck Freshman Invite 200m 26.9 22nd · 4th on team -0.026 PR SR
2024-05-23 Dundee Jim Beck Freshman Invite 100m 12.98 27th · 4th on team -0.026 PR SR
2024-04-30 SEC-HS: Bedford @ Lincoln pv 7' 6 -0.032
2024-04-30 SEC-HS: Bedford @ Lincoln 200m 27.62 17th · 14th on team -0.032
2024-04-30 SEC-HS: Bedford @ Lincoln 100m 13.29 11th · 10th on team -0.032 PR SR
2024-04-16 SEC-HS: Skyline & Bedford at Dexter lj 12' 11.25 -0.036
2024-04-16 SEC-HS: Skyline & Bedford at Dexter 100m 13.76 45th · 19th on team -0.036 PR SR
2024-04-13 Monroe Jefferson Frosh-Soph Invitational lj 13' 9.25 -0.027
2024-04-09 SEC HS: Huron & Saline at Bedford lj 14' 6 -0.033
2024-04-09 SEC HS: Huron & Saline at Bedford 200m 27.6 32nd · 12th on team -0.033 PR SR

2023 TF

Temperance Bedford (MI) · Grade 8

Date Meet Event Result Place Rating Difficulty PR/SR Flags
2023-05-15 SEC-MS: Lincoln & Bedford @ Monroe lj 13' 5 -0.032
2023-05-15 SEC-MS: Lincoln & Bedford @ Monroe 100m 14.38 16th · 7th on team -0.032
2023-05-08 SEC-MS Chelsea & Ypsi @Bedford lj 13-7.0 -0.033
2023-05-08 SEC-MS Chelsea & Ypsi @Bedford 200m 31.14 12th · 7th on team -0.033 PR SR
2023-05-04 SEC-MS Bedford at Saline lj 13' 11 -0.038
2023-05-04 SEC-MS Bedford at Saline 100m 14.7 17th · 6th on team -0.038
2023-04-27 SEC-MS: Bedford @ Pinckney lj 12' 8 -0.032
2023-04-27 SEC-MS: Bedford @ Pinckney 100m 14.04 11th · 9th on team -0.032 PR SR